Terminal Aerodrome Forecast
Issued by NWS

Home | Current Version | Previous Version | Text Only | Print | Product List | Glossary On
Versions: 1 2 3 4 5 6 7 8 9 10 11 12 13 14 15 16 17 18 19 20
000
FTUS43 KGRR 220900 AAA
TAFMKG
TAF AMD
KMKG 220904Z 2209/2306 21015G23KT P6SM -RA OVC025
     FM221200 21014G21KT 4SM -RA BR OVC018
     FM221500 21014G22KT 2SM BR VCSH OVC009=

USA.gov is the U.S. government's official web portal to all federal, state and local government web resources and services.